createdAt,value
2023-03-14T00:00:59.678Z,70.88
2023-03-14T00:04:05.459Z,71.19
2023-03-14T00:07:08.255Z,70.79
2023-03-14T00:10:14.724Z,71.31
2023-03-14T00:13:17.560Z,71.65
2023-03-14T00:16:23.428Z,71.25
2023-03-14T00:19:26.226Z,71.28
2023-03-14T00:22:28.984Z,72.37
2023-03-14T00:25:31.895Z,72.43
2023-03-14T00:28:35.107Z,72.95
2023-03-14T00:31:38.262Z,73.45
2023-03-14T00:34:41.150Z,72.80
2023-03-14T00:37:43.910Z,73.07
2023-03-14T00:40:46.702Z,72.73
2023-03-14T00:43:50.472Z,72.83
2023-03-14T00:46:53.331Z,74.00
2023-03-14T00:49:56.199Z,72.63
2023-03-14T00:52:59.852Z,73.44
2023-03-14T00:56:07.394Z,73.99
2023-03-14T00:59:10.464Z,74.74
2023-03-14T01:02:13.565Z,73.33
2023-03-14T01:05:16.556Z,74.23
2023-03-14T01:08:19.509Z,73.79
2023-03-14T01:11:31.809Z,73.67
2023-03-14T01:14:34.810Z,73.85
2023-03-14T01:17:39.095Z,73.93
2023-03-14T01:20:41.856Z,73.39
2023-03-14T01:23:45.608Z,73.77
2023-03-14T01:26:48.313Z,74.96
2023-03-14T01:29:51.050Z,74.63
2023-03-14T01:32:55.567Z,74.19
2023-03-14T01:35:58.405Z,73.62
2023-03-14T01:39:01.238Z,74.01
2023-03-14T01:42:05.058Z,74.35
2023-03-14T01:45:46.555Z,73.61
2023-03-14T01:48:55.182Z,74.69
2023-03-14T01:52:27.504Z,74.76
2023-03-14T01:55:30.600Z,74.84
2023-03-14T01:58:35.750Z,74.68
2023-03-14T02:01:42.215Z,73.49
2023-03-14T02:04:45.375Z,74.04
2023-03-14T02:07:59.128Z,75.00
2023-03-14T02:11:09.459Z,74.16
2023-03-14T02:14:35.512Z,72.65
2023-03-14T02:18:05.318Z,72.33
2023-03-14T02:21:43.472Z,72.69
2023-03-14T02:25:17.909Z,72.04
2023-03-14T02:28:21.692Z,71.74
2023-03-14T02:31:27.894Z,71.19
2023-03-14T02:34:32.861Z,70.09
2023-03-14T02:37:56.586Z,69.41
2023-03-14T02:41:01.175Z,70.59
2023-03-14T02:44:05.714Z,70.65
2023-03-14T02:47:10.527Z,71.07
2023-03-14T02:50:21.527Z,71.31
2023-03-14T02:53:33.881Z,71.13
2023-03-14T02:56:41.490Z,71.84
2023-03-14T02:59:47.293Z,70.74
2023-03-14T03:02:54.496Z,69.68
2023-03-14T03:05:58.364Z,70.34
2023-03-14T03:09:01.834Z,69.68
2023-03-14T03:12:04.992Z,69.56
2023-03-14T03:15:08.828Z,70.22
2023-03-14T03:18:13.748Z,70.50
2023-03-14T03:21:20.005Z,69.93
2023-03-14T03:24:22.842Z,70.53
2023-03-14T03:27:25.578Z,70.81
2023-03-14T03:30:29.703Z,70.67
2023-03-14T03:33:32.763Z,71.79
2023-03-14T03:36:35.664Z,71.20
2023-03-14T03:39:38.527Z,71.69
2023-03-14T03:42:41.509Z,71.29
2023-03-14T03:45:46.240Z,71.31
2023-03-14T03:48:49.354Z,71.02
2023-03-14T03:51:53.218Z,71.18
2023-03-14T03:54:56.303Z,71.68
2023-03-14T03:57:59.116Z,71.38
2023-03-14T04:01:03.287Z,70.45
2023-03-14T04:04:06.392Z,70.27
2023-03-14T04:07:10.472Z,70.22
2023-03-14T04:10:13.772Z,70.30
2023-03-14T04:13:23.053Z,69.93
2023-03-14T04:16:28.598Z,70.30
2023-03-14T04:19:38.446Z,71.05
2023-03-14T04:22:44.472Z,70.78
2023-03-14T04:25:47.638Z,70.52
2023-03-14T04:28:51.428Z,70.01
2023-03-14T04:31:55.934Z,70.02
2023-03-14T04:34:58.827Z,68.90
2023-03-14T04:38:01.828Z,68.48
2023-03-14T04:41:07.449Z,68.70
2023-03-14T04:44:11.597Z,69.04
2023-03-14T04:47:14.595Z,68.14
2023-03-14T04:50:18.264Z,67.87
2023-03-14T04:53:22.732Z,68.95
2023-03-14T04:56:28.975Z,68.40
2023-03-14T04:59:32.500Z,67.71
2023-03-14T05:02:44.053Z,67.93
2023-03-14T05:06:09.923Z,67.09
2023-03-14T05:09:38.515Z,67.44
2023-03-14T05:12:47.189Z,67.85
2023-03-14T05:16:28.222Z,67.38
2023-03-14T05:19:39.965Z,66.89
2023-03-14T05:23:04.501Z,66.63
2023-03-14T05:26:25.737Z,67.22
2023-03-14T05:29:35.542Z,67.64
2023-03-14T05:32:58.306Z,67.34
2023-03-14T05:36:19.881Z,68.45
2023-03-14T05:39:45.640Z,66.98
2023-03-14T05:43:09.244Z,67.30
2023-03-14T05:46:38.272Z,66.67
2023-03-14T05:49:59.434Z,65.98
2023-03-14T05:53:31.441Z,66.21
2023-03-14T05:56:51.369Z,65.83
2023-03-14T06:00:13.156Z,65.19
2023-03-14T06:03:17.354Z,64.86
2023-03-14T06:06:23.369Z,65.08
2023-03-14T06:09:26.311Z,64.83
2023-03-14T06:12:33.050Z,64.14
2023-03-14T06:15:37.042Z,63.24
2023-03-14T06:18:40.322Z,63.16
2023-03-14T06:21:44.912Z,62.83
2023-03-14T06:24:48.031Z,62.90
2023-03-14T06:27:52.739Z,62.67
2023-03-14T06:30:57.226Z,62.13
2023-03-14T06:34:00.358Z,61.50
2023-03-14T06:37:06.909Z,61.09
2023-03-14T06:40:12.499Z,61.03
2023-03-14T06:43:35.613Z,60.38
2023-03-14T06:46:38.805Z,59.33
2023-03-14T06:49:42.005Z,60.00
2023-03-14T06:52:49.148Z,59.56
2023-03-14T06:55:57.186Z,59.33
2023-03-14T06:59:01.901Z,59.11
2023-03-14T07:02:12.086Z,57.86
2023-03-14T07:05:16.194Z,56.05
2023-03-14T07:08:21.249Z,54.63
2023-03-14T07:11:25.688Z,52.32
2023-03-14T07:14:28.763Z,46.47
2023-03-14T07:17:31.790Z,43.70
2023-03-14T07:20:35.333Z,41.61
2023-03-14T07:23:40.332Z,39.55
2023-03-14T07:26:44.517Z,37.07
2023-03-14T07:29:47.713Z,34.32
2023-03-14T07:32:50.878Z,34.49
2023-03-14T07:35:54.691Z,33.96
2023-03-14T07:38:57.741Z,31.67
2023-03-14T07:42:18.938Z,30.59
2023-03-14T07:45:43.104Z,28.65
2023-03-14T07:48:46.131Z,28.24
2023-03-14T07:51:50.180Z,27.65
2023-03-14T07:54:52.926Z,26.36
2023-03-14T07:57:56.563Z,25.15
2023-03-14T08:01:04.202Z,24.51
2023-03-14T08:04:07.090Z,26.44
2023-03-14T08:07:11.769Z,30.18
2023-03-14T08:10:23.475Z,33.74
2023-03-14T08:13:26.875Z,32.54
2023-03-14T08:16:31.549Z,28.47
2023-03-14T08:19:34.434Z,25.85
2023-03-14T08:22:37.181Z,24.38
2023-03-14T08:25:40.417Z,24.21
2023-03-14T08:28:43.398Z,22.33
2023-03-14T08:31:46.504Z,23.25
2023-03-14T08:34:49.828Z,21.89
2023-03-14T08:37:53.312Z,21.33
2023-03-14T08:40:58.697Z,20.84
2023-03-14T08:44:01.560Z,21.53
2023-03-14T08:47:04.650Z,24.24
2023-03-14T08:50:08.486Z,25.95
2023-03-14T08:53:13.434Z,28.19
2023-03-14T08:56:16.446Z,29.41
2023-03-14T08:59:19.674Z,30.02
2023-03-14T09:02:25.361Z,31.47
2023-03-14T09:05:28.269Z,33.74
2023-03-14T09:08:31.191Z,27.84
2023-03-14T09:11:34.288Z,27.41
2023-03-14T09:14:37.021Z,26.89
2023-03-14T09:17:39.828Z,25.19
2023-03-14T09:20:44.130Z,25.06
2023-03-14T09:23:48.117Z,25.10
2023-03-14T09:26:51.193Z,27.21
2023-03-14T09:29:54.281Z,27.38
2023-03-14T09:32:58.335Z,29.55
2023-03-14T09:36:01.375Z,28.29
2023-03-14T09:39:05.454Z,27.63
2023-03-14T09:42:14.430Z,26.77
2023-03-14T09:45:24.741Z,29.32
2023-03-14T09:48:34.590Z,28.54
2023-03-14T09:51:38.273Z,30.87
2023-03-14T09:55:04.881Z,30.62
2023-03-14T09:58:14.037Z,30.65
2023-03-14T10:01:21.822Z,31.07
2023-03-14T10:04:25.278Z,33.02
2023-03-14T10:07:31.684Z,33.13
2023-03-14T10:10:36.459Z,30.29
2023-03-14T10:13:50.324Z,28.95
2023-03-14T10:16:53.154Z,28.99
2023-03-14T10:19:58.729Z,27.21
2023-03-14T10:23:08.074Z,25.27
2023-03-14T10:26:19.231Z,23.62
2023-03-14T10:29:23.236Z,22.51
2023-03-14T10:32:35.522Z,21.21
2023-03-14T10:35:38.861Z,21.26
2023-03-14T10:38:42.340Z,19.27
2023-03-14T10:41:51.687Z,17.57
2023-03-14T10:45:23.815Z,17.43
2023-03-14T10:48:38.597Z,16.50
2023-03-14T10:51:42.169Z,17.50
2023-03-14T10:54:53.325Z,17.09
2023-03-14T10:57:56.893Z,17.11
2023-03-14T11:01:15.188Z,18.39
2023-03-14T11:04:21.319Z,17.92
2023-03-14T11:07:44.555Z,18.25
2023-03-14T11:10:52.457Z,19.02
2023-03-14T11:14:07.710Z,18.71
2023-03-14T11:17:27.013Z,19.18
2023-03-14T11:20:33.927Z,18.69
2023-03-14T11:23:51.310Z,17.37
2023-03-14T11:27:17.547Z,17.66
2023-03-14T11:30:26.614Z,17.41
2023-03-14T11:33:47.196Z,17.03
2023-03-14T11:37:12.964Z,17.09
2023-03-14T11:40:20.772Z,15.99
2023-03-14T11:43:44.145Z,16.13
2023-03-14T11:47:16.449Z,15.68
2023-03-14T11:50:26.857Z,15.30
2023-03-14T11:53:58.587Z,15.73
2023-03-14T11:57:22.233Z,15.72
2023-03-14T12:00:28.486Z,16.27
2023-03-14T12:03:44.873Z,16.86
2023-03-14T12:06:52.102Z,17.46
2023-03-14T12:09:56.279Z,16.90
2023-03-14T12:12:59.819Z,16.06
2023-03-14T12:16:22.806Z,16.46
2023-03-14T12:19:32.109Z,16.16
2023-03-14T12:22:43.201Z,16.34
2023-03-14T12:25:46.069Z,17.42
2023-03-14T12:29:11.500Z,17.21
2023-03-14T12:32:25.357Z,15.81
2023-03-14T12:35:46.030Z,14.97
2023-03-14T12:39:11.707Z,15.60
2023-03-14T12:42:18.357Z,17.89
2023-03-14T12:45:36.295Z,18.21
2023-03-14T12:48:40.817Z,17.79
2023-03-14T12:51:45.762Z,15.86
2023-03-14T12:55:01.841Z,15.78
2023-03-14T12:58:31.036Z,15.15
2023-03-14T13:01:35.941Z,15.29
2023-03-14T13:05:05.631Z,14.59
2023-03-14T13:08:10.627Z,15.52
2023-03-14T13:11:17.239Z,15.02
2023-03-14T13:14:20.293Z,15.98
2023-03-14T13:17:42.652Z,15.39
2023-03-14T13:20:52.654Z,13.97
2023-03-14T13:24:07.015Z,14.21
2023-03-14T13:27:20.569Z,17.97
2023-03-14T13:30:30.601Z,19.61
2023-03-14T13:33:35.537Z,21.86
2023-03-14T13:36:38.865Z,22.73
2023-03-14T13:39:41.845Z,24.12
2023-03-14T13:42:45.063Z,24.41
2023-03-14T13:45:58.515Z,26.00
2023-03-14T13:49:08.667Z,25.54
2023-03-14T13:52:38.774Z,25.50
2023-03-14T13:55:41.615Z,26.15
2023-03-14T13:58:44.938Z,25.19
2023-03-14T14:01:48.839Z,23.75
2023-03-14T14:04:52.009Z,24.38
2023-03-14T14:07:55.552Z,25.85
2023-03-14T14:11:03.065Z,25.65
2023-03-14T14:14:11.226Z,26.70
2023-03-14T14:17:19.588Z,28.02
2023-03-14T14:20:36.417Z,29.29
2023-03-14T14:23:39.895Z,28.58
2023-03-14T14:26:59.912Z,28.57
2023-03-14T14:30:06.408Z,28.97
2023-03-14T14:33:22.457Z,29.51
2023-03-14T14:36:40.845Z,29.88
2023-03-14T14:39:43.610Z,30.60
2023-03-14T14:42:47.924Z,29.92
2023-03-14T14:45:53.581Z,30.13
2023-03-14T14:48:58.536Z,30.63
2023-03-14T14:52:05.862Z,31.21
2023-03-14T14:55:20.844Z,31.96
2023-03-14T14:58:29.048Z,31.43
2023-03-14T15:01:42.977Z,31.39
2023-03-14T15:04:45.725Z,32.06
2023-03-14T15:07:48.724Z,32.74
2023-03-14T15:10:51.577Z,34.15
2023-03-14T15:13:55.752Z,34.01
2023-03-14T15:16:58.550Z,34.04
2023-03-14T15:20:01.325Z,33.68
2023-03-14T15:23:10.553Z,34.16
2023-03-14T15:26:17.082Z,34.99
2023-03-14T15:29:20.098Z,34.72
2023-03-14T15:32:23.181Z,35.13
2023-03-14T15:35:26.061Z,34.83
2023-03-14T15:38:28.980Z,35.13
2023-03-14T15:41:31.931Z,35.04
2023-03-14T15:44:35.191Z,35.48
2023-03-14T15:47:37.973Z,35.69
2023-03-14T15:50:41.684Z,36.70
2023-03-14T15:53:45.122Z,36.19
2023-03-14T15:56:47.993Z,37.07
2023-03-14T15:59:50.951Z,38.34
2023-03-14T16:02:53.844Z,39.36
2023-03-14T16:05:56.928Z,40.06
2023-03-14T16:09:00.749Z,39.81
2023-03-14T16:12:05.992Z,38.90
2023-03-14T16:15:10.317Z,39.57
2023-03-14T16:18:21.665Z,39.25
2023-03-14T16:21:25.037Z,37.86
2023-03-14T16:24:28.904Z,38.76
2023-03-14T16:27:32.080Z,40.12
2023-03-14T16:30:34.792Z,39.55
2023-03-14T16:33:39.241Z,41.12
2023-03-14T16:36:42.368Z,40.68
2023-03-14T16:40:10.438Z,40.55
2023-03-14T16:43:16.340Z,40.65
2023-03-14T16:46:19.900Z,41.06
2023-03-14T16:49:27.803Z,42.04
2023-03-14T16:52:30.761Z,42.65
2023-03-14T16:55:33.628Z,42.84
2023-03-14T16:58:36.882Z,43.16
2023-03-14T17:01:41.273Z,43.59
2023-03-14T17:04:44.075Z,44.08
2023-03-14T17:07:46.802Z,44.97
2023-03-14T17:10:53.749Z,45.27
2023-03-14T17:13:56.787Z,46.32
2023-03-14T17:17:02.313Z,46.06
2023-03-14T17:20:09.419Z,47.19
2023-03-14T17:23:12.867Z,47.15
2023-03-14T17:26:15.778Z,47.49
2023-03-14T17:29:19.012Z,48.08
2023-03-14T17:32:21.950Z,49.10
2023-03-14T17:35:24.677Z,48.77
2023-03-14T17:38:27.622Z,49.24
2023-03-14T17:41:30.585Z,49.76
2023-03-14T17:44:34.988Z,50.37
2023-03-14T17:47:38.221Z,50.75
2023-03-14T17:50:42.383Z,50.42
2023-03-14T17:53:45.617Z,50.39
2023-03-14T17:56:49.200Z,50.72
2023-03-14T17:59:53.996Z,51.11
2023-03-14T18:02:59.141Z,51.93
2023-03-14T18:06:11.077Z,52.58
2023-03-14T18:09:14.886Z,53.23
2023-03-14T18:12:17.737Z,54.86
2023-03-14T18:15:21.269Z,55.19
2023-03-14T18:18:25.212Z,55.67
2023-03-14T18:21:30.337Z,55.95
2023-03-14T18:24:33.686Z,56.76
2023-03-14T18:27:38.374Z,57.25
2023-03-14T18:30:43.620Z,57.66
2023-03-14T18:33:48.057Z,58.12
2023-03-14T18:36:51.056Z,58.23
2023-03-14T18:39:54.578Z,58.44
2023-03-14T18:42:57.682Z,58.88
2023-03-14T18:46:01.269Z,59.13
2023-03-14T18:49:04.932Z,59.82
2023-03-14T18:52:08.170Z,59.89
2023-03-14T18:55:11.243Z,59.89
2023-03-14T18:58:14.687Z,59.36
2023-03-14T19:01:18.182Z,59.21
2023-03-14T19:04:21.730Z,59.40
2023-03-14T19:07:25.091Z,59.29
2023-03-14T19:10:28.279Z,59.83
2023-03-14T19:13:33.051Z,59.83
2023-03-14T19:16:36.267Z,59.99
2023-03-14T19:19:39.549Z,60.33
2023-03-14T19:22:43.621Z,60.50
2023-03-14T19:25:46.380Z,60.97
2023-03-14T19:28:49.088Z,61.12
2023-03-14T19:31:54.144Z,61.55
2023-03-14T19:34:57.749Z,61.77
2023-03-14T19:38:00.871Z,61.99
2023-03-14T19:41:04.650Z,62.68
2023-03-14T19:44:08.237Z,63.12
2023-03-14T19:47:11.195Z,63.37
2023-03-14T19:50:14.397Z,63.36
2023-03-14T19:53:17.764Z,63.38
2023-03-14T19:56:24.478Z,63.90
2023-03-14T19:59:27.541Z,63.85
2023-03-14T20:02:31.695Z,64.09
2023-03-14T20:05:34.836Z,63.89
2023-03-14T20:08:38.388Z,64.63
2023-03-14T20:11:42.888Z,64.89
2023-03-14T20:14:45.986Z,64.74
2023-03-14T20:17:49.858Z,64.99
2023-03-14T20:20:57.061Z,64.94
2023-03-14T20:24:00.263Z,65.94
2023-03-14T20:27:04.361Z,66.07
2023-03-14T20:30:12.981Z,66.12
2023-03-14T20:33:20.174Z,67.19
2023-03-14T20:36:23.359Z,67.05
2023-03-14T20:39:26.146Z,67.37
2023-03-14T20:42:29.150Z,67.35
2023-03-14T20:45:31.893Z,68.16
2023-03-14T20:48:35.310Z,67.94
2023-03-14T20:51:38.427Z,68.00
2023-03-14T20:54:42.791Z,68.38
2023-03-14T20:57:46.572Z,68.14
2023-03-14T21:00:55.404Z,68.28
2023-03-14T21:03:58.689Z,68.87
2023-03-14T21:07:02.324Z,68.62
2023-03-14T21:10:05.705Z,68.90
2023-03-14T21:13:09.166Z,68.66
2023-03-14T21:16:11.977Z,69.33
2023-03-14T21:19:15.056Z,69.04
2023-03-14T21:22:19.148Z,68.93
2023-03-14T21:25:22.219Z,68.93
2023-03-14T21:28:25.410Z,68.73
2023-03-14T21:31:32.099Z,69.04
2023-03-14T21:34:35.114Z,69.13
2023-03-14T21:37:38.135Z,68.95
2023-03-14T21:40:41.487Z,68.96
2023-03-14T21:43:45.962Z,69.25
2023-03-14T21:46:49.835Z,69.52
2023-03-14T21:49:53.989Z,69.97
2023-03-14T21:52:57.250Z,70.54
2023-03-14T21:56:00.124Z,70.06
2023-03-14T21:59:03.854Z,70.63
2023-03-14T22:02:12.228Z,70.55
2023-03-14T22:05:17.375Z,70.91
2023-03-14T22:08:20.822Z,70.33
2023-03-14T22:11:25.089Z,70.42
2023-03-14T22:14:27.860Z,70.73
2023-03-14T22:17:30.689Z,69.97
2023-03-14T22:20:35.838Z,70.53
2023-03-14T22:23:38.574Z,70.38
2023-03-14T22:26:41.468Z,70.78
2023-03-14T22:29:44.481Z,70.32
2023-03-14T22:32:47.620Z,70.40
2023-03-14T22:35:51.908Z,70.70
2023-03-14T22:38:54.759Z,71.51
2023-03-14T22:41:57.785Z,71.42
2023-03-14T22:45:00.560Z,71.47
2023-03-14T22:48:03.446Z,71.54
2023-03-14T22:51:09.451Z,71.65
2023-03-14T22:54:12.282Z,72.10
2023-03-14T22:57:14.996Z,72.58
2023-03-14T23:00:18.864Z,72.76
2023-03-14T23:03:23.010Z,72.67
2023-03-14T23:06:25.770Z,73.32
2023-03-14T23:09:28.535Z,73.54
2023-03-14T23:12:31.271Z,74.03
2023-03-14T23:15:34.624Z,73.82
2023-03-14T23:18:39.695Z,73.85
2023-03-14T23:21:42.553Z,74.15
2023-03-14T23:24:48.963Z,74.60
2023-03-14T23:27:54.368Z,74.16
2023-03-14T23:30:58.592Z,73.96
2023-03-14T23:34:02.114Z,74.54
2023-03-14T23:37:05.138Z,74.35
2023-03-14T23:40:08.395Z,74.75
2023-03-14T23:43:12.725Z,74.75
2023-03-14T23:46:16.665Z,74.23
2023-03-14T23:49:20.331Z,74.42
2023-03-14T23:52:23.186Z,74.53
2023-03-14T23:55:26.319Z,74.54
2023-03-14T23:58:30.926Z,73.67
